YSDU

Dubbo City Regional Airport

Airport
ICAO code
YSDU
IATA Code
DBO
Summary
ICAO Region
APAC
ICAO Territory
Location

Dubbo, New South Wales

Serving
Dubbo
Elevation
935 ft
Coordinates
32° 13' 0" S , 148° 34' 29" E
KCC
Metar
Observation
YSDU 021230Z AUTO 08006KT 9999 // NCD 14/09 Q1016 RF00.0/000.0
Station
Dubbo
Date/Time
2022-12-02 12:30:00
Wind direction
80°
Wind speed
06 kts
Lowest cloud amount
no clouds detected
Temperature
14°C
Dew point
9°C
Humidity
71%
QNH
1016 hPa
Weather condition
n/a

Regional airport located 2 nm northwest of Dubbo, New South Wales, Australia.

Airport map

Aerial View

SKYbrary Partners:

Safety knowledge contributed by: